Time;durP1;ratioP1;P1;durP2;ratioP2;P2;SDS_P1;SDS_P2;PMS_P1;PMS_P2;Temp;Humidity;BMP_temperature;BMP_pressure;BME280_temperature;BME280_humidity;BME280_pressure;Samples;Min_cycle;Max_cycle;Signal;HPM_P1;HPM_P2
2023/05/24 00:01:50;;;;;;;23.80;6.28;;;8.50;99.90;;;;;;5024147;28;20049;-48
2023/05/24 00:04:17;;;;;;;25.88;7.10;;;8.50;99.90;;;;;;5006512;28;20416;-51
2023/05/24 00:06:43;;;;;;;27.23;7.25;;;8.60;99.90;;;;;;5023373;28;20286;-54
2023/05/24 00:09:10;;;;;;;25.58;7.03;;;8.60;99.90;;;;;;5025361;28;20407;-53
2023/05/24 00:11:35;;;;;;;29.20;7.65;;;8.50;99.90;;;;;;5010159;28;20088;-52
2023/05/24 00:14:01;;;;;;;31.50;7.75;;;9.60;99.90;;;;;;5028569;28;20085;-49
2023/05/24 00:16:27;;;;;;;32.15;7.82;;;8.40;99.90;;;;;;5028050;28;20073;-53
2023/05/24 00:18:53;;;;;;;30.42;7.65;;;8.40;99.90;;;;;;5027684;28;20046;-53
2023/05/24 00:21:19;;;;;;;31.77;7.45;;;8.40;99.90;;;;;;5027212;28;20082;-52
2023/05/24 00:23:46;;;;;;;28.42;7.32;;;8.40;99.90;;;;;;5027931;28;20045;-50
2023/05/24 00:26:12;;;;;;;34.45;7.28;;;8.40;99.90;;;;;;5009740;28;20119;-53
2023/05/24 00:28:37;;;;;;;26.35;7.28;;;8.30;99.90;;;;;;5028115;28;20451;-54
2023/05/24 00:31:03;;;;;;;27.55;6.70;;;8.30;99.90;;;;;;5028118;28;20048;-54
2023/05/24 00:33:28;;;;;;;29.23;7.45;;;8.40;99.90;;;;;;5010293;28;20046;-50
2023/05/24 00:35:57;;;;;;;26.60;7.45;;;8.40;99.90;;;;;;5026369;28;20389;-51
2023/05/24 00:38:26;;;;;;;26.45;7.22;;;8.30;99.90;;;;;;5027673;28;20049;-52
2023/05/24 00:40:55;;;;;;;26.35;6.85;;;8.30;99.90;;;;;;5027597;28;20042;-52
2023/05/24 00:43:20;;;;;;;27.30;6.70;;;8.30;99.90;;;;;;5027439;28;20049;-53
2023/05/24 00:45:46;;;;;;;29.40;7.00;;;8.30;99.90;;;;;;5009321;28;20033;-52
2023/05/24 00:48:12;;;;;;;37.42;7.30;;;8.30;99.90;;;;;;5027085;28;20119;-52
2023/05/24 00:50:39;;;;;;;30.75;7.50;;;8.30;99.90;;;;;;5026318;28;20519;-53
2023/05/24 00:53:05;;;;;;;28.67;7.07;;;8.40;99.90;;;;;;5009203;28;20045;-53
2023/05/24 00:55:33;;;;;;;27.30;6.97;;;8.40;99.90;;;;;;5009591;28;20055;-52
2023/05/24 00:57:59;;;;;;;29.05;7.43;;;8.40;99.90;;;;;;5026570;28;20326;-51
2023/05/24 01:00:28;;;;;;;31.67;7.00;;;8.30;99.90;;;;;;5027291;28;20060;-53
2023/05/24 01:02:53;;;;;;;32.42;7.07;;;8.40;99.90;;;;;;5026813;28;20132;-54
2023/05/24 01:05:20;;;;;;;26.00;7.22;;;8.40;99.90;;;;;;5025781;28;20148;-52
2023/05/24 01:08:06;;;;;;;31.80;7.13;;;8.40;99.90;;;;;;5026653;28;20060;-49
2023/05/24 01:10:55;;;;;;;28.23;7.35;;;8.50;99.90;;;;;;5027129;28;20057;-50
2023/05/24 01:13:30;;;;;;;28.38;7.50;;;8.50;99.90;;;;;;5026127;28;20057;-50
2023/05/24 01:16:04;;;;;;;;;;;8.60;99.90;;;;;;5027023;28;20382;-53
2023/05/24 01:18:37;;;;;;;25.27;6.85;;;8.60;99.90;;;;;;5026634;28;20295;-51
2023/05/24 01:21:47;;;;;;;22.05;6.60;;;8.80;99.90;;;;;;5025202;28;20038;-50
2023/05/24 01:24:54;;;;;;;23.50;6.32;;;8.70;99.90;;;;;;5026551;28;20049;-50
2023/05/24 01:27:22;;;;;;;30.65;6.93;;;8.80;99.90;;;;;;5026494;28;20377;-53
2023/05/24 01:29:52;;;;;;;26.13;6.80;;;8.90;99.90;;;;;;5008156;28;20132;-54
2023/05/24 01:32:19;;;;;;;21.48;6.45;;;8.90;99.90;;;;;;5008978;28;20087;-52
2023/05/24 01:34:45;;;;;;;24.23;6.45;;;8.90;99.90;;;;;;5026474;28;20049;-52
2023/05/24 01:37:10;;;;;;;25.00;6.50;;;8.90;99.90;;;;;;5025466;28;20078;-53
2023/05/24 01:39:36;;;;;;;31.77;7.10;;;8.90;99.90;;;;;;5026506;28;20077;-49
2023/05/24 01:42:18;;;;;;;24.65;6.90;;;9.00;99.90;;;;;;5026515;28;20041;-53
2023/05/24 01:44:52;;;;;;;25.50;6.65;;;9.00;99.90;;;;;;5025818;28;20476;-53
2023/05/24 01:47:26;;;;;;;27.83;6.70;;;8.90;99.90;;;;;;5026004;28;20393;-53
2023/05/24 01:50:27;;;;;;;24.52;6.90;;;9.00;99.90;;;;;;5025670;28;20157;-53
2023/05/24 01:52:56;;;;;;;25.80;6.93;;;9.00;99.90;;;;;;5000784;28;20077;-51
2023/05/24 01:55:21;;;;;;;29.63;7.10;;;9.00;99.90;;;;;;5025390;28;20582;-53
2023/05/24 01:57:50;;;;;;;26.88;7.38;;;9.00;99.90;;;;;;5026056;28;20071;-53
2023/05/24 02:00:18;;;;;;;29.58;6.72;;;9.00;99.90;;;;;;5026062;28;20037;-54
2023/05/24 02:02:44;;;;;;;24.50;6.32;;;9.00;99.90;;;;;;5025438;28;20047;-53
2023/05/24 02:05:10;;;;;;;26.88;6.70;;;8.90;99.90;;;;;;5006923;28;20048;-53
2023/05/24 02:07:37;;;;;;;21.55;6.60;;;8.90;99.90;;;;;;5004813;28;20058;-51
2023/05/24 02:10:03;;;;;;;27.15;6.43;;;8.90;99.90;;;;;;5005407;28;20128;-51
2023/05/24 02:12:29;;;;;;;21.88;6.00;;;8.90;99.90;;;;;;5005809;28;20041;-53
2023/05/24 02:14:56;;;;;;;23.83;6.65;;;8.80;99.90;;;;;;5005826;28;20083;-53
2023/05/24 02:17:23;;;;;;;21.00;6.00;;;8.80;99.90;;;;;;5005609;28;20462;-52
2023/05/24 02:19:49;;;;;;;26.65;6.00;;;8.80;99.90;;;;;;5005818;28;20402;-53
2023/05/24 02:22:14;;;;;;;34.65;6.65;;;8.70;99.90;;;;;;5005258;28;20187;-53
2023/05/24 02:24:40;;;;;;;21.55;6.18;;;8.70;99.90;;;;;;5005867;28;20068;-53
2023/05/24 02:27:06;;;;;;;23.98;6.47;;;8.90;99.90;;;;;;5005532;28;20038;-54
2023/05/24 02:29:31;;;;;;;27.52;6.70;;;8.70;99.90;;;;;;5004190;28;20077;-53
2023/05/24 02:31:57;;;;;;;29.25;6.53;;;8.80;99.90;;;;;;5004104;28;20571;-54
2023/05/24 02:34:23;;;;;;;33.25;7.30;;;8.80;99.90;;;;;;5004933;28;20382;-52
2023/05/24 02:36:49;;;;;;;19.30;6.20;;;8.80;99.90;;;;;;5004790;28;20037;-52
2023/05/24 02:39:15;;;;;;;21.75;5.65;;;8.90;99.90;;;;;;5005382;28;20045;-50
2023/05/24 02:41:41;;;;;;;21.20;5.75;;;8.90;99.90;;;;;;5005281;28;20095;-52
2023/05/24 02:44:06;;;;;;;22.15;7.40;;;8.90;99.90;;;;;;5005508;28;20381;-52
2023/05/24 02:46:32;;;;;;;27.38;6.85;;;9.00;99.90;;;;;;5004974;28;20092;-50
2023/05/24 02:48:58;;;;;;;21.70;5.80;;;9.00;99.90;;;;;;5005288;28;20548;-52
2023/05/24 02:51:23;;;;;;;28.40;6.72;;;9.00;99.90;;;;;;5004038;28;20440;-52
2023/05/24 02:53:49;;;;;;;22.33;6.47;;;9.10;99.90;;;;;;5005200;28;20042;-54
2023/05/24 02:56:18;;;;;;;22.73;5.55;;;9.10;99.90;;;;;;5005452;28;20060;-57
2023/05/24 02:58:43;;;;;;;23.02;5.88;;;9.10;99.90;;;;;;5004783;28;20072;-54
2023/05/24 03:01:12;;;;;;;20.52;5.65;;;9.10;99.90;;;;;;5005447;28;20187;-54
2023/05/24 03:03:38;;;;;;;25.13;6.18;;;9.10;99.90;;;;;;5005496;28;20041;-53
2023/05/24 03:06:05;;;;;;;28.75;6.50;;;9.10;99.90;;;;;;5004285;28;20120;-53
2023/05/24 03:08:36;;;;;;;22.70;5.68;;;9.10;99.90;;;;;;5007086;28;20052;-54
2023/05/24 03:11:02;;;;;;;19.85;5.60;;;9.10;99.90;;;;;;5006900;28;20053;-53
2023/05/24 03:13:28;;;;;;;18.38;5.25;;;9.10;99.90;;;;;;5024510;28;20124;-51
2023/05/24 03:15:53;;;;;;;22.23;5.50;;;9.10;99.90;;;;;;5023976;28;20117;-54
2023/05/24 03:18:19;;;;;;;24.92;5.95;;;9.20;99.90;;;;;;5024296;28;20049;-50
2023/05/24 03:20:45;;;;;;;21.50;5.60;;;9.10;99.90;;;;;;5023998;28;20045;-49
2023/05/24 03:23:10;;;;;;;25.40;5.72;;;9.20;99.90;;;;;;5024441;28;20049;-51
2023/05/24 03:25:36;;;;;;;27.88;5.70;;;9.10;99.90;;;;;;5006377;28;20080;-54
2023/05/24 03:28:02;;;;;;;24.02;5.68;;;9.10;99.90;;;;;;5023823;28;20041;-52
2023/05/24 03:30:28;;;;;;;21.70;5.50;;;9.10;99.90;;;;;;5023678;28;20046;-51
2023/05/24 03:32:54;;;;;;;22.27;5.68;;;9.10;99.90;;;;;;5023818;28;20045;-54
2023/05/24 03:35:19;;;;;;;25.77;5.22;;;9.90;99.90;;;;;;5023434;28;20045;-53
2023/05/24 03:37:45;;;;;;;24.98;6.13;;;9.90;99.90;;;;;;5024339;28;20052;-51
2023/05/24 03:40:11;;;;;;;24.42;5.78;;;9.00;99.90;;;;;;5024150;28;20296;-51
2023/05/24 03:42:37;;;;;;;18.60;5.05;;;9.00;99.90;;;;;;5024359;28;20120;-52
2023/05/24 03:45:04;;;;;;;24.88;5.72;;;9.00;99.90;;;;;;5026379;28;20263;-53
2023/05/24 03:47:29;;;;;;;22.33;5.47;;;9.10;99.90;;;;;;5027747;28;20113;-54
2023/05/24 03:49:55;;;;;;;22.58;5.60;;;9.10;99.90;;;;;;5027812;28;20121;-55
2023/05/24 03:52:20;;;;;;;21.15;5.32;;;9.10;99.90;;;;;;5028252;28;20053;-54
2023/05/24 03:54:46;;;;;;;21.70;5.72;;;9.10;99.90;;;;;;5027947;28;20038;-53
2023/05/24 03:57:11;;;;;;;25.98;5.57;;;9.20;99.90;;;;;;5027881;28;20099;-53
2023/05/24 03:59:37;;;;;;;21.85;5.47;;;9.10;99.90;;;;;;5028011;28;20095;-52
2023/05/24 04:02:03;;;;;;;25.05;6.00;;;9.20;99.90;;;;;;5028200;28;20166;-51
2023/05/24 04:04:28;;;;;;;22.13;5.63;;;9.20;99.90;;;;;;5027765;28;20484;-52
2023/05/24 04:06:55;;;;;;;19.70;5.35;;;9.20;99.90;;;;;;5027047;28;20049;-51
2023/05/24 04:09:21;;;;;;;23.88;5.30;;;9.20;99.90;;;;;;5010172;28;20056;-50
2023/05/24 04:11:47;;;;;;;21.45;4.95;;;9.20;99.90;;;;;;5027792;28;20271;-51
2023/05/24 04:14:12;;;;;;;18.20;5.35;;;9.30;99.90;;;;;;5027713;28;20063;-52
2023/05/24 04:16:40;;;;;;;26.30;5.75;;;9.40;99.90;;;;;;5027587;28;20045;-53
2023/05/24 04:19:06;;;;;;;24.73;5.53;;;9.50;99.90;;;;;;5027810;28;20045;-53
2023/05/24 04:21:32;;;;;;;20.65;5.53;;;9.50;99.90;;;;;;5026557;28;20357;-53
2023/05/24 04:24:02;;;;;;;24.13;5.72;;;9.60;99.90;;;;;;5009659;28;20420;-54
2023/05/24 04:26:28;;;;;;;27.48;5.93;;;9.80;99.90;;;;;;5027587;28;20033;-52
2023/05/24 04:28:54;;;;;;;22.33;5.68;;;9.60;99.90;;;;;;5027371;28;20037;-52
2023/05/24 04:31:20;;;;;;;20.45;5.78;;;9.70;99.90;;;;;;5027801;28;20059;-52
2023/05/24 04:33:46;;;;;;;22.65;5.85;;;9.70;99.90;;;;;;5027699;28;20400;-53
2023/05/24 04:36:12;;;;;;;22.67;5.25;;;9.70;99.90;;;;;;5026517;28;20045;-50
2023/05/24 04:38:39;;;;;;;27.42;5.40;;;9.70;99.90;;;;;;5009532;28;20042;-51
2023/05/24 04:41:05;;;;;;;23.33;5.60;;;9.70;99.90;;;;;;5027148;28;20059;-54
2023/05/24 04:43:33;;;;;;;23.08;5.63;;;9.70;99.90;;;;;;5009433;28;20062;-51
2023/05/24 04:45:58;;;;;;;21.08;5.72;;;9.80;99.90;;;;;;5026610;28;20052;-53
2023/05/24 04:48:24;;;;;;;28.17;5.75;;;9.80;99.90;;;;;;5027194;28;20038;-49
2023/05/24 04:50:51;;;;;;;29.23;5.93;;;9.80;99.90;;;;;;5008675;28;20109;-51
2023/05/24 04:53:17;;;;;;;19.85;4.93;;;9.90;99.90;;;;;;5027048;28;20037;-50
2023/05/24 04:55:43;;;;;;;22.35;6.07;;;9.90;99.90;;;;;;5009725;28;20041;-52
2023/05/24 04:58:08;;;;;;;20.83;5.40;;;10.00;99.90;;;;;;5027016;28;20041;-54
2023/05/24 05:00:34;;;;;;;26.08;6.00;;;10.10;99.90;;;;;;5026701;28;20040;-51
2023/05/24 05:03:00;;;;;;;19.75;4.90;;;10.50;99.90;;;;;;5027011;28;20427;-50
2023/05/24 05:05:25;;;;;;;25.75;5.32;;;10.80;99.90;;;;;;5008479;28;20054;-54
2023/05/24 05:07:51;;;;;;;28.25;5.68;;;11.30;99.90;;;;;;5005664;28;20050;-48
2023/05/24 05:10:17;;;;;;;21.95;4.68;;;11.70;99.90;;;;;;5007139;28;20064;-54
2023/05/24 05:12:43;;;;;;;24.92;6.20;;;11.70;99.90;;;;;;5006960;28;20373;-51
2023/05/24 05:15:09;;;;;;;22.58;5.28;;;11.60;99.90;;;;;;4988972;28;20068;-54
2023/05/24 05:17:35;;;;;;;25.00;5.82;;;11.30;99.90;;;;;;5006429;28;20049;-49
2023/05/24 05:20:03;;;;;;;18.52;5.57;;;11.20;99.90;;;;;;5006294;28;20405;-51
2023/05/24 05:22:29;;;;;;;19.30;5.15;;;11.00;99.90;;;;;;5006826;28;20041;-53
2023/05/24 05:24:55;;;;;;;18.25;5.07;;;10.90;99.90;;;;;;5006837;28;20413;-51
2023/05/24 05:27:20;;;;;;;20.77;5.65;;;11.00;99.90;;;;;;5005244;28;20049;-52
2023/05/24 05:29:46;;;;;;;20.00;5.53;;;10.80;99.90;;;;;;5005538;28;20043;-50
2023/05/24 05:32:11;;;;;;;15.63;5.00;;;10.80;99.90;;;;;;5006752;28;20046;-52
2023/05/24 05:34:37;;;;;;;20.45;4.80;;;10.70;99.90;;;;;;5005506;28;20132;-53
2023/05/24 05:37:03;;;;;;;17.05;5.05;;;10.70;99.90;;;;;;5006566;28;20060;-54
2023/05/24 05:39:30;;;;;;;18.23;5.10;;;10.60;99.90;;;;;;5006466;28;20172;-54
2023/05/24 05:41:56;;;;;;;19.08;5.18;;;10.60;99.90;;;;;;4974506;28;20047;-53
2023/05/24 05:44:22;;;;;;;19.15;5.40;;;10.70;99.90;;;;;;4967245;28;20043;-53
2023/05/24 05:46:47;;;;;;;21.58;5.32;;;10.70;99.90;;;;;;4966255;28;20190;-53
2023/05/24 05:49:14;;;;;;;20.65;4.78;;;10.80;99.90;;;;;;4967680;28;20049;-49
2023/05/24 05:51:40;;;;;;;22.02;5.25;;;10.90;99.90;;;;;;4966406;28;20051;-53
2023/05/24 05:54:12;;;;;;;17.83;4.88;;;11.00;99.90;;;;;;4967438;28;20050;-53
2023/05/24 05:56:44;;;;;;;19.45;5.07;;;11.10;99.90;;;;;;4967172;28;20429;-58
2023/05/24 05:59:16;;;;;;;24.17;5.20;;;11.10;99.90;;;;;;4967402;28;20053;-58
2023/05/24 06:01:45;;;;;;;22.50;6.13;;;11.30;99.90;;;;;;4967125;28;20046;-57
2023/05/24 06:04:11;;;;;;;21.50;5.60;;;11.40;99.90;;;;;;4967013;28;20053;-60
2023/05/24 06:06:37;;;;;;;21.13;5.22;;;13.00;99.90;;;;;;4975423;28;20058;-57
2023/05/24 06:09:02;;;;;;;21.23;5.10;;;11.60;99.90;;;;;;5006277;28;20401;-55
2023/05/24 06:11:28;;;;;;;18.48;4.85;;;11.60;99.90;;;;;;5005872;28;20092;-57
2023/05/24 06:13:54;;;;;;;20.48;5.32;;;12.00;99.90;;;;;;5005209;28;20457;-57
2023/05/24 06:16:20;;;;;;;21.60;5.70;;;12.00;99.90;;;;;;5006050;28;20045;-57
2023/05/24 06:18:46;;;;;;;21.00;4.85;;;11.80;99.90;;;;;;5005489;28;20038;-58
2023/05/24 06:21:13;;;;;;;15.50;4.60;;;11.90;99.90;;;;;;5004576;28;20100;-57
2023/05/24 06:23:38;;;;;;;17.85;5.05;;;11.90;99.90;;;;;;5005602;28;20046;-57
2023/05/24 06:26:05;;;;;;;21.98;5.07;;;11.90;99.90;;;;;;5005315;28;20042;-58
2023/05/24 06:28:31;;;;;;;20.45;4.85;;;12.00;99.90;;;;;;5005089;28;20041;-57
2023/05/24 06:30:56;;;;;;;20.83;5.25;;;12.00;99.90;;;;;;5005306;28;20444;-57
2023/05/24 06:33:22;;;;;;;17.77;4.47;;;12.00;99.90;;;;;;5005636;28;20034;-57
2023/05/24 06:35:48;;;;;;;16.65;4.40;;;12.00;99.90;;;;;;5004663;28;20046;-58
2023/05/24 06:38:13;;;;;;;20.90;4.85;;;12.10;99.90;;;;;;5005292;28;20830;-57
2023/05/24 06:40:39;;;;;;;18.35;4.25;;;12.00;99.90;;;;;;5005189;28;20045;-57
2023/05/24 06:43:05;;;;;;;19.50;5.05;;;12.00;99.90;;;;;;4987678;28;20045;-58
2023/05/24 06:45:31;;;;;;;22.63;5.07;;;12.10;99.90;;;;;;5004570;28;20042;-57
2023/05/24 06:47:56;;;;;;;21.08;4.85;;;12.10;99.90;;;;;;5004940;28;20079;-63
2023/05/24 06:50:22;;;;;;;20.42;4.80;;;12.60;99.90;;;;;;5004590;28;20046;-63
2023/05/24 06:52:48;;;;;;;16.05;4.72;;;13.10;99.90;;;;;;5005383;28;20069;-61
2023/05/24 06:55:14;;;;;;;17.23;4.10;;;12.40;99.90;;;;;;5004454;28;20448;-65
2023/05/24 06:57:40;;;;;;;19.70;4.85;;;12.50;99.90;;;;;;5005235;28;20453;-68
2023/05/24 07:00:10;;;;;;;18.10;4.97;;;12.80;99.90;;;;;;5005383;28;20088;-69
2023/05/24 07:02:36;;;;;;;18.27;4.55;;;12.70;99.90;;;;;;4987124;28;20056;-71
2023/05/24 07:05:02;;;;;;;16.30;4.30;;;12.80;99.90;;;;;;5004182;28;20056;-70
2023/05/24 07:07:27;;;;;;;17.80;4.78;;;12.90;99.90;;;;;;5010563;28;20099;-67
2023/05/24 07:09:53;;;;;;;15.82;4.22;;;13.00;99.90;;;;;;5024319;28;20136;-68
2023/05/24 07:12:19;;;;;;;15.57;4.43;;;13.00;99.90;;;;;;5024362;28;20049;-55
2023/05/24 07:14:44;;;;;;;16.90;4.40;;;13.10;99.90;;;;;;5024315;28;20069;-63
2023/05/24 07:17:10;;;;;;;16.63;3.95;;;13.10;99.90;;;;;;5024375;28;20056;-66
2023/05/24 07:19:36;;;;;;;21.38;4.68;;;13.30;99.90;;;;;;5022328;28;20051;-66
2023/05/24 07:22:01;;;;;;;18.23;4.63;;;13.00;99.90;;;;;;5024221;28;20484;-66
2023/05/24 07:24:27;;;;;;;15.30;4.18;;;12.90;99.90;;;;;;5024111;28;20052;-65
2023/05/24 07:26:52;;;;;;;16.17;4.75;;;12.90;99.90;;;;;;5023734;28;20450;-65
2023/05/24 07:29:20;;;;;;;21.25;7.78;;;12.90;99.90;;;;;;5024566;28;20042;-64
2023/05/24 07:31:47;;;;;;;13.10;4.35;;;12.90;99.90;;;;;;5024219;28;20052;-64
2023/05/24 07:34:12;;;;;;;20.67;4.53;;;12.90;99.90;;;;;;5022970;28;20042;-65
2023/05/24 07:36:39;;;;;;;14.85;4.10;;;12.90;99.90;;;;;;5024159;28;20094;-65
2023/05/24 07:39:08;;;;;;;17.75;4.15;;;12.90;99.90;;;;;;5024092;28;20131;-65
2023/05/24 07:41:35;;;;;;;17.38;3.92;;;13.00;99.90;;;;;;5024384;28;20068;-63
2023/05/24 07:44:00;;;;;;;16.15;4.30;;;13.20;99.90;;;;;;5023609;28;20488;-65
2023/05/24 07:46:26;;;;;;;13.65;4.18;;;13.30;99.90;;;;;;5006522;28;20121;-64
2023/05/24 07:48:52;;;;;;;17.42;4.18;;;13.40;99.90;;;;;;5024521;28;20041;-63
2023/05/24 07:51:17;;;;;;;14.43;4.38;;;13.20;99.90;;;;;;5022701;28;20041;-63
2023/05/24 07:53:43;;;;;;;15.63;4.10;;;13.50;99.90;;;;;;5005958;28;20549;-64
2023/05/24 07:56:09;;;;;;;15.50;4.63;;;13.30;99.90;;;;;;5023839;28;20396;-64
2023/05/24 07:58:34;;;;;;;21.98;12.93;;;13.60;99.90;;;;;;5023794;28;20488;-64
2023/05/24 08:01:00;;;;;;;15.75;5.07;;;13.80;99.90;;;;;;5024339;28;20049;-70
2023/05/24 08:03:26;;;;;;;15.27;4.10;;;13.80;99.90;;;;;;5024122;28;20488;-67
2023/05/24 08:05:52;;;;;;;18.75;5.47;;;13.80;99.90;;;;;;5022945;28;20084;-66
2023/05/24 08:08:18;;;;;;;17.23;4.60;;;13.80;99.90;;;;;;5023384;28;20748;-68
2023/05/24 08:10:44;;;;;;;21.38;4.80;;;14.20;99.90;;;;;;5006341;28;20050;-69
2023/05/24 08:13:10;;;;;;;13.63;3.70;;;14.40;99.90;;;;;;5023835;28;20483;-65
2023/05/24 08:15:35;;;;;;;13.07;3.42;;;14.30;99.90;;;;;;5023337;28;20045;-66
2023/05/24 08:18:02;;;;;;;10.13;3.30;;;14.70;99.90;;;;;;5023786;28;20130;-69
2023/05/24 08:20:27;;;;;;;11.25;3.58;;;15.20;99.90;;;;;;5023365;28;20292;-64
2023/05/24 08:22:53;;;;;;;14.68;3.13;;;16.00;99.90;;;;;;5023690;28;20484;-66
2023/05/24 08:25:19;;;;;;;16.55;3.63;;;16.10;99.90;;;;;;5023734;28;20049;-72
2023/05/24 08:27:45;;;;;;;13.93;3.55;;;15.90;99.90;;;;;;5023683;28;20053;-70
2023/05/24 08:30:13;;;;;;;18.55;3.67;;;15.70;99.90;;;;;;5024445;28;20516;-70
2023/05/24 08:32:38;;;;;;;11.88;3.42;;;15.50;99.90;;;;;;5027084;28;20065;-69
2023/05/24 08:35:04;;;;;;;19.15;3.95;;;15.30;99.90;;;;;;5009064;28;20136;-68
2023/05/24 08:37:32;;;;;;;12.15;3.33;;;15.30;99.90;;;;;;5027901;28;20041;-69
2023/05/24 08:39:58;;;;;;;13.45;3.28;;;15.40;99.90;;;;;;5009542;28;20294;-69
2023/05/24 08:42:24;;;;;;;10.57;3.50;;;15.40;99.90;;;;;;5027428;28;20136;-69
2023/05/24 08:45:07;;;;;;;11.15;3.13;;;15.50;99.90;;;;;;5009704;28;20049;-67
2023/05/24 08:47:34;;;;;;;12.18;3.65;;;15.60;99.90;;;;;;5026822;28;20045;-66
2023/05/24 08:50:01;;;;;;;14.93;3.08;;;15.70;99.90;;;;;;5026910;28;20103;-58
2023/05/24 08:52:28;;;;;;;12.88;3.22;;;15.60;99.90;;;;;;5027051;28;20037;-68
2023/05/24 08:54:54;;;;;;;10.75;2.90;;;15.70;99.90;;;;;;5026515;28;20129;-56
2023/05/24 08:57:21;;;;;;;9.18;2.85;;;15.80;99.90;;;;;;5028211;28;20037;-66
2023/05/24 08:59:46;;;;;;;10.80;3.00;;;15.90;99.90;;;;;;5027362;28;20442;-63
2023/05/24 09:02:13;;;;;;;13.82;3.40;;;16.40;99.90;;;;;;5026534;28;20140;-63
2023/05/24 09:04:40;;;;;;;13.77;3.50;;;16.80;99.90;;;;;;5026198;28;20080;-66
2023/05/24 09:07:12;;;;;;;10.50;2.80;;;17.50;98.70;;;;;;5026815;28;20412;-69
2023/05/24 09:09:44;;;;;;;11.25;3.13;;;17.50;98.50;;;;;;5026890;28;20046;-72
2023/05/24 09:12:13;;;;;;;7.85;2.40;;;18.00;98.00;;;;;;5026868;28;20049;-66
2023/05/24 09:14:44;;;;;;;10.88;2.92;;;18.00;97.50;;;;;;5026410;28;20042;-66
2023/05/24 09:17:11;;;;;;;10.68;3.17;;;17.70;97.30;;;;;;5026330;28;20050;-70
2023/05/24 09:19:38;;;;;;;10.32;3.78;;;17.50;97.90;;;;;;5026205;28;20041;-72
2023/05/24 09:22:05;;;;;;;14.55;3.25;;;17.30;98.20;;;;;;5026492;28;20045;-68
2023/05/24 09:24:39;;;;;;;15.27;3.47;;;17.20;98.40;;;;;;5026483;28;20471;-66
2023/05/24 09:27:05;;;;;;;13.10;3.20;;;17.10;98.10;;;;;;5026291;28;20045;-68
2023/05/24 09:29:35;;;;;;;11.15;3.00;;;16.90;98.50;;;;;;5026809;28;20041;-73
2023/05/24 09:32:03;;;;;;;11.80;3.42;;;16.70;98.40;;;;;;5026408;28;20053;-66
2023/05/24 09:34:36;;;;;;;9.68;2.90;;;16.50;99.10;;;;;;5025709;28;20045;-67
2023/05/24 09:37:02;;;;;;;12.73;4.93;;;16.20;99.20;;;;;;5026631;28;20131;-63
2023/05/24 09:39:28;;;;;;;15.90;4.38;;;16.10;99.70;;;;;;5008412;28;20087;-64
2023/05/24 09:41:55;;;;;;;15.85;4.03;;;15.90;99.90;;;;;;5025264;28;20116;-63
2023/05/24 09:44:26;;;;;;;12.20;3.58;;;15.70;99.90;;;;;;5026188;28;20046;-63
2023/05/24 09:46:52;;;;;;;14.55;3.08;;;15.60;99.90;;;;;;5025632;28;20512;-64
2023/05/24 09:49:20;;;;;;;17.08;3.30;;;15.50;99.90;;;;;;5025605;28;20053;-64
2023/05/24 09:51:46;;;;;;;17.05;3.60;;;15.50;99.90;;;;;;5008526;28;20050;-67
2023/05/24 09:54:11;;;;;;;13.05;3.42;;;15.50;99.90;;;;;;5007698;28;20125;-67
2023/05/24 09:56:38;;;;;;;14.85;4.65;;;15.40;99.90;;;;;;5025892;28;20045;-66
2023/05/24 09:59:07;;;;;;;14.20;3.60;;;15.70;99.90;;;;;;5026430;28;20131;-68
2023/05/24 10:01:33;;;;;;;12.18;3.60;;;15.60;99.90;;;;;;5026099;28;20045;-64
2023/05/24 10:04:01;;;;;;;11.20;3.38;;;15.60;99.90;;;;;;5007325;28;20041;-67
2023/05/24 10:06:28;;;;;;;11.93;3.60;;;15.90;99.90;;;;;;5025305;28;20088;-64
2023/05/24 10:08:55;;;;;;;13.77;3.70;;;16.20;99.50;;;;;;5025632;28;20042;-62
2023/05/24 10:11:21;;;;;;;13.18;3.55;;;16.40;98.70;;;;;;5025752;28;20513;-64
2023/05/24 10:13:48;;;;;;;11.48;3.53;;;16.60;98.70;;;;;;5025482;28;20060;-64
2023/05/24 10:16:15;;;;;;;11.75;3.40;;;16.60;98.40;;;;;;5025178;28;20262;-64
2023/05/24 10:18:40;;;;;;;11.98;3.28;;;16.80;98.70;;;;;;5024041;28;20041;-66
2023/05/24 10:21:07;;;;;;;18.23;3.70;;;17.20;98.60;;;;;;5025207;28;20042;-69
2023/05/24 10:23:35;;;;;;;15.80;3.58;;;17.20;98.20;;;;;;5025262;28;20319;-70
2023/05/24 10:26:10;;;;;;;12.45;3.60;;;17.10;98.20;;;;;;5024781;28;20084;-66
2023/05/24 10:28:51;;;;;;;7.78;3.00;;;17.00;98.20;;;;;;5025457;28;20494;-68
2023/05/24 10:31:22;;;;;;;13.13;3.72;;;16.80;98.20;;;;;;5024951;28;20079;-65
2023/05/24 10:33:50;;;;;;;11.90;3.75;;;16.60;98.40;;;;;;5024521;28;20049;-70
2023/05/24 10:36:17;;;;;;;11.95;3.75;;;16.40;98.70;;;;;;5025037;28;20124;-65
2023/05/24 10:38:45;;;;;;;11.57;3.40;;;16.40;99.00;;;;;;5024519;28;20519;-64
2023/05/24 10:41:12;;;;;;;13.05;3.40;;;16.20;98.80;;;;;;5025061;28;20033;-67
2023/05/24 10:43:38;;;;;;;15.73;4.20;;;16.10;99.10;;;;;;5025388;28;20049;-70
2023/05/24 10:46:07;;;;;;;13.85;5.85;;;15.90;99.20;;;;;;5024821;28;20063;-68
2023/05/24 10:48:37;;;;;;;13.82;4.05;;;15.90;99.40;;;;;;5023997;28;20099;-69
2023/05/24 10:51:37;;;;;;;14.98;3.85;;;15.90;99.40;;;;;;5025165;28;20060;-69
2023/05/24 10:54:28;;;;;;;13.52;3.97;;;15.90;99.50;;;;;;5024277;28;20045;-68
2023/05/24 10:56:55;;;;;;;11.40;3.92;;;15.90;99.90;;;;;;5020171;28;20053;-66
2023/05/24 10:59:29;;;;;;;14.57;3.45;;;16.00;99.90;;;;;;5007172;28;20140;-64
2023/05/24 11:01:59;;;;;;;9.57;3.03;;;16.30;99.90;;;;;;5024207;28;20087;-66
2023/05/24 11:04:26;;;;;;;107.80;69.65;;;16.10;99.90;;;;;;5023844;28;20053;-68
2023/05/24 11:06:56;;;;;;;16.88;7.00;;;16.20;99.90;;;;;;5007682;28;20796;-66
2023/05/24 11:09:23;;;;;;;12.98;5.07;;;16.30;99.40;;;;;;5006490;28;20072;-66
2023/05/24 11:11:54;;;;;;;14.70;4.63;;;16.50;99.20;;;;;;5024738;28;20034;-66
2023/05/24 11:14:26;;;;;;;13.23;3.83;;;16.60;98.90;;;;;;5024342;28;20454;-63
2023/05/24 11:16:52;;;;;;;11.43;4.07;;;16.80;98.50;;;;;;5006452;28;20049;-67
2023/05/24 11:19:27;;;;;;;9.38;3.13;;;16.80;98.70;;;;;;5023696;28;20033;-68
2023/05/24 11:21:57;;;;;;;11.88;3.20;;;16.90;98.70;;;;;;5006914;28;20046;-65
2023/05/24 11:24:24;;;;;;;12.57;3.40;;;16.80;98.20;;;;;;5024058;28;20041;-66
2023/05/24 11:26:51;;;;;;;9.13;3.25;;;16.80;98.60;;;;;;5024191;28;20053;-66
2023/05/24 11:29:20;;;;;;;8.45;3.00;;;16.80;98.30;;;;;;5024293;28;20281;-65
2023/05/24 11:31:48;;;;;;;12.73;3.38;;;16.70;98.20;;;;;;5023758;28;20057;-65
2023/05/24 11:34:14;;;;;;;9.52;3.30;;;16.70;98.50;;;;;;5005599;28;20096;-66
2023/05/24 11:36:41;;;;;;;11.32;3.20;;;16.80;98.30;;;;;;5024664;28;20045;-64
2023/05/24 11:39:08;;;;;;;10.07;3.10;;;16.90;98.20;;;;;;5023552;28;20423;-66
2023/05/24 11:41:37;;;;;;;10.40;3.25;;;17.00;97.90;;;;;;5023883;28;20037;-68
2023/05/24 11:44:03;;;;;;;10.00;2.72;;;17.10;97.90;;;;;;5023974;28;20038;-66
2023/05/24 11:46:30;;;;;;;8.75;2.72;;;17.40;97.60;;;;;;5023573;28;20056;-64
2023/05/24 11:48:56;;;;;;;11.40;2.80;;;17.30;97.10;;;;;;5023401;28;20057;-67
2023/05/24 11:51:40;;;;;;;12.40;3.17;;;17.30;97.30;;;;;;5024315;28;20057;-67
2023/05/24 11:54:05;;;;;;;10.15;3.13;;;17.30;96.40;;;;;;5023989;28;20111;-65
2023/05/24 11:56:31;;;;;;;12.88;3.33;;;17.30;97.30;;;;;;5023853;28;20124;-66
2023/05/24 11:59:15;;;;;;;9.57;3.30;;;17.20;97.60;;;;;;5006606;28;20061;-66
2023/05/24 12:01:41;;;;;;;13.70;3.28;;;17.10;97.10;;;;;;5024593;28;20076;-65
2023/05/24 12:04:09;;;;;;;10.32;3.10;;;17.00;97.70;;;;;;5005727;28;20077;-65
2023/05/24 12:06:37;;;;;;;12.32;3.95;;;16.90;97.70;;;;;;5026370;28;20148;-65
2023/05/24 12:09:09;;;;;;;9.82;3.35;;;16.90;97.90;;;;;;5027968;28;20128;-66
2023/05/24 12:11:43;;;;;;;10.35;2.80;;;17.10;98.00;;;;;;5027629;28;20484;-65
2023/05/24 12:14:35;;;;;;;11.20;3.23;;;17.30;97.80;;;;;;5027408;28;20476;-64
2023/05/24 12:17:00;;;;;;;6.88;2.55;;;17.50;96.90;;;;;;5023100;28;20136;-64
2023/05/24 12:19:33;;;;;;;10.05;2.40;;;17.40;97.00;;;;;;5026710;28;20168;-63
2023/05/24 12:22:09;;;;;;;8.73;2.50;;;17.30;96.60;;;;;;5027665;28;20385;-63
2023/05/24 12:24:36;;;;;;;16.48;4.13;;;17.20;96.60;;;;;;5027027;28;20385;-64
2023/05/24 12:27:06;;;;;;;12.00;3.53;;;17.30;96.40;;;;;;5028007;28;20396;-64
2023/05/24 12:29:41;;;;;;;6.70;2.70;;;17.60;96.40;;;;;;5009744;28;20056;-71
2023/05/24 12:32:11;;;;;;;7.57;2.72;;;17.80;96.30;;;;;;5027062;28;20060;-67
2023/05/24 12:34:39;;;;;;;6.97;2.42;;;17.90;96.00;;;;;;5026837;28;20045;-67
2023/05/24 12:37:06;;;;;;;13.00;3.10;;;17.80;96.10;;;;;;5027659;28;20037;-64
2023/05/24 12:39:35;;;;;;;13.57;3.42;;;17.80;96.50;;;;;;5026838;28;20056;-64
2023/05/24 12:42:02;;;;;;;12.13;3.47;;;17.70;97.00;;;;;;5009836;28;20049;-68
2023/05/24 12:44:32;;;;;;;9.75;3.08;;;17.60;97.10;;;;;;5027575;28;20096;-70